
Distance (Route):
Temperature : -50.3°C
Humidity : 0%
Pressure : 54.9hPa| Receiver | Frames | First received | Last received |
|---|---|---|---|
| AA1-15 | 255 | 2026-09-03 12:43:16 | 2026-09-03 13:06:50 |
| Receiver | Date | Latitude | Longitude | Direction | Speed | Altitude | Climb | Temperature | Humidity | Pressure | Voltage | Killtimer | Uptime | BKT | XDATA |
|---|---|---|---|---|---|---|---|---|---|---|---|---|---|---|---|
| AA1-15 | 2026-09-03 13:06:50 | 54.87158 | 20.04758 | 304° | 95km/h | 1677m | 8.1m/s | -50.3°C | 0% | 54.9hPa | 2.1V | 00:00:00 | 00:00:00 | 00:00:00 | |
| AA1-15 | 2026-09-03 13:06:42 | 54.87055 | 20.05076 | 289° | 97km/h | 1607m | 8.3m/s | -50.3°C | 0% | 53.7hPa | 2.1V | 00:00:00 | 00:00:00 | 00:00:00 | |
| AA1-15 | 2026-09-03 13:05:06 | 54.88517 | 20.06801 | 140° | 97km/h | 832m | 8m/s | -49.8°C | 0% | 41.2hPa | 2.3V | 00:00:00 | 00:00:00 | 00:00:00 | |
| AA1-15 | 2026-09-03 13:03:52 | 54.91140 | 22.62878 | 226° | 97km/h | 1237m | 11.2m/s | -50.3°C | 0% | 33.6hPa | 2.3V | 00:00:00 | 00:00:00 | 00:00:00 | |
| AA1-15 | 2026-09-03 13:01:44 | 54.95203 | 19.26828 | 295° | 20km/h | 1743m | 13.2m/s | -48.1°C | 0% | 21.4hPa | 2.4V | 00:00:00 | 00:00:00 | 00:00:00 | |
| AA1-15 | 2026-09-03 13:01:25 | 54.95198 | 19.26972 | 268° | 95km/h | 1535m | 9.9m/s | -48.4°C | 0% | 19.9hPa | 2.4V | 00:00:00 | 00:00:00 | 00:00:00 | |
| AA1-15 | 2026-09-03 12:59:54 | 54.53122 | 22.22395 | 268° | 13km/h | 1909m | 9.3m/s | -44.7°C | 0% | 13.4hPa | 2.3V | 00:00:00 | 00:00:00 | 00:00:00 | |
| AA1-15 | 2026-09-03 12:59:43 | 55.08267 | 19.72835 | 0° | 0km/h | 159087m | 0m/s | -44.6°C | 0% | 12.7hPa | 2.4V | 00:00:00 | 00:00:00 | 00:00:00 | |
| AA1-15 | 2026-09-03 12:59:19 | 55.08247 | 19.72957 | 290° | 20km/h | 2578m | 10.8m/s | -44°C | 0% | 11.3hPa | 2.4V | 00:00:00 | 00:00:00 | 00:00:00 | |
| AA1-15 | 2026-09-03 12:58:29 | 55.08208 | 19.73290 | 295° | 22km/h | 2054m | 13.9m/s | -40.5°C | 0% | 8.5hPa | 2.4V | 00:00:00 | 00:00:00 | 00:00:00 | |
| AA1-15 | 2026-09-03 12:58:13 | 55.08207 | 19.73391 | 298° | 15km/h | 1925m | 9.1m/s | -40.1°C | 0% | 7.7hPa | 2.4V | 00:00:00 | 00:00:00 | 00:00:00 | |
| AA1-15 | 2026-09-03 12:57:29 | 54.82792 | 22.16582 | 334° | 7km/h | 159087m | 6.9m/s | -36.6°C | 0.1% | 5.5hPa | 2.4V | 00:00:00 | 00:00:00 | 00:00:00 | |
| AA1-15 | 2026-09-03 12:57:18 | 54.82786 | 22.16619 | 283° | 16km/h | 2580m | 9.8m/s | -35.1°C | 0.2% | 4.9hPa | 2.4V | 00:00:00 | 00:00:00 | 00:00:00 | |
| AA1-15 | 2026-09-03 12:57:05 | 54.82777 | 22.16697 | 276° | 15km/h | 2485m | 9.3m/s | -33.8°C | 0.4% | 4.3hPa | 2.4V | 00:00:00 | 00:00:00 | 00:00:00 | |
| AA1-15 | 2026-09-03 12:56:52 | 54.82790 | 22.16776 | 270° | 13km/h | 2366m | 7.7m/s | -32.3°C | 0.5% | 3.7hPa | 2.3V | 00:00:00 | 00:00:00 | 00:00:00 | |
| AA1-15 | 2026-09-03 12:56:40 | 54.82797 | 22.16827 | 272° | 18km/h | 2295m | 8.2m/s | -31.9°C | 0.6% | 3.3hPa | 2.4V | 00:00:00 | 00:00:00 | 00:00:00 | |
| AA1-15 | 2026-09-03 12:56:28 | 54.82808 | 22.16898 | 346° | 29km/h | 2266m | 16.1m/s | -29.4°C | 0.7% | 2.8hPa | 2.4V | 00:00:00 | 00:00:00 | 00:00:00 | |
| AA1-15 | 2026-09-03 12:56:18 | 54.82781 | 22.16991 | 268° | 15km/h | 2092m | 8.5m/s | -29.4°C | 0.7% | 2.9hPa | 2.4V | 00:00:00 | 00:00:00 | 00:00:00 | |
| AA1-15 | 2026-09-03 12:56:07 | 54.82794 | 22.17064 | 258° | 15km/h | 1996m | 9m/s | -29.4°C | 0.7% | 2.9hPa | 2.4V | 00:00:00 | 00:00:00 | 00:00:00 | |
| AA1-15 | 2026-09-03 12:56:06 | 54.82793 | 22.17070 | 264° | 18km/h | 1988m | 8.9m/s | -29.4°C | 0.7% | 2.9hPa | 2.4V | 00:00:00 | 00:00:00 | 00:00:00 | |
| AA1-15 | 2026-09-03 12:56:04 | 54.82790 | 22.17081 | 257° | 15km/h | 1969m | 10.4m/s | -29.6°C | 0.7% | 2.9hPa | 2.4V | 00:00:00 | 00:00:00 | 00:00:00 | |
| AA1-15 | 2026-09-03 12:55:58 | 54.82800 | 22.17107 | 286° | 15km/h | 1934m | 4.7m/s | -29.9°C | 0.7% | 3hPa | 2.4V | 00:00:00 | 00:00:00 | 00:00:00 | |
| AA1-15 | 2026-09-03 12:55:56 | 54.82800 | 22.17117 | 276° | 13km/h | 1921m | 9.1m/s | -29.9°C | 0.7% | 3hPa | 2.4V | 00:00:00 | 00:00:00 | 00:00:00 | |
| AA1-15 | 2026-09-03 12:55:54 | 54.82802 | 22.17123 | 291° | 16km/h | 1916m | 11.2m/s | -29.9°C | 0.7% | 3hPa | 2.4V | 00:00:00 | 00:00:00 | 00:00:00 | |
| AA1-15 | 2026-09-03 12:55:40 | 54.92110 | 19.89585 | 180° | 2km/h | 159087m | 9.1m/s | -30.9°C | 0.7% | 3.1hPa | 2.4V | 00:00:00 | 00:00:00 | 00:00:00 | |
| AA1-15 | 2026-09-03 12:55:29 | 54.92110 | 19.89595 | 270° | 13km/h | 2712m | 8m/s | -31°C | 0.7% | 3.1hPa | 2.4V | 00:00:00 | 00:00:00 | 00:00:00 | |
| AA1-15 | 2026-09-03 12:55:18 | 54.92114 | 19.89655 | 272° | 15km/h | 2595m | 8.1m/s | -31.4°C | 0.8% | 3.2hPa | 2.4V | 00:00:00 | 00:00:00 | 00:00:00 | |
| AA1-15 | 2026-09-03 12:55:07 | 54.92122 | 19.89730 | 269° | 13km/h | 2506m | 8.2m/s | -31.6°C | 0.8% | 3.2hPa | 2.4V | 00:00:00 | 00:00:00 | 00:00:00 | |
| AA1-15 | 2026-09-03 12:54:57 | 54.92137 | 19.89798 | 272° | 13km/h | 2407m | 7.9m/s | -31.6°C | 0.8% | 3.3hPa | 2.3V | 00:00:00 | 00:00:00 | 00:00:00 | |
| AA1-15 | 2026-09-03 12:54:46 | 54.92145 | 19.89877 | 269° | 16km/h | 2327m | 8.2m/s | -31.8°C | 0.8% | 3.4hPa | 2.4V | 00:00:00 | 00:00:00 | 00:00:00 | |
| AA1-15 | 2026-09-03 12:54:37 | 54.92131 | 19.89940 | 270° | 15km/h | 2234m | 8.1m/s | -31.8°C | 0.8% | 3.4hPa | 2.3V | 00:00:00 | 00:00:00 | 00:00:00 | |
| AA1-15 | 2026-09-03 12:54:25 | 54.92132 | 19.90000 | 271° | 16km/h | 2139m | 8.1m/s | -31.8°C | 0.8% | 3.5hPa | 2.3V | 00:00:00 | 00:00:00 | 00:00:00 | |
| AA1-15 | 2026-09-03 12:54:14 | 54.92134 | 19.90061 | 271° | 16km/h | 2081m | 8m/s | -32°C | 0.8% | 3.6hPa | 2.4V | 00:00:00 | 00:00:00 | 00:00:00 | |
| AA1-15 | 2026-09-03 12:54:04 | 54.92131 | 19.90129 | 270° | 15km/h | 1995m | 8m/s | -32°C | 0.8% | 3.6hPa | 2.3V | 00:00:00 | 00:00:00 | 00:00:00 | |
| AA1-15 | 2026-09-03 12:54:03 | 54.92127 | 19.90144 | 274° | 13km/h | 1966m | 8.2m/s | -32°C | 0.8% | 3.6hPa | 2.4V | 00:00:00 | 00:00:00 | 00:00:00 | |
| AA1-15 | 2026-09-03 12:54:01 | 54.92125 | 19.90150 | 269° | 15km/h | 1960m | 8.3m/s | -32°C | 0.8% | 3.6hPa | 2.4V | 00:00:00 | 00:00:00 | 00:00:00 | |
| AA1-15 | 2026-09-03 12:53:58 | 54.92125 | 19.90160 | 270° | 15km/h | 1944m | 8m/s | -31.9°C | 0.8% | 3.6hPa | 2.4V | 00:00:00 | 00:00:00 | 00:00:00 | |
| AA1-15 | 2026-09-03 12:53:54 | 54.92124 | 19.90182 | 271° | 13km/h | 1901m | 8.1m/s | -31.8°C | 0.8% | 3.7hPa | 2.4V | 00:00:00 | 00:00:00 | 00:00:00 | |
| AA1-15 | 2026-09-03 12:53:51 | 54.92125 | 19.90202 | 271° | 16km/h | 1873m | 8.1m/s | -31.8°C | 0.8% | 3.7hPa | 2.4V | 00:00:00 | 00:00:00 | 00:00:00 | |
| AA1-15 | 2026-09-03 12:53:49 | 54.92127 | 19.90217 | 270° | 16km/h | 1855m | 8.1m/s | -31.8°C | 0.8% | 3.7hPa | 2.4V | 00:00:00 | 00:00:00 | 00:00:00 | |
| AA1-15 | 2026-09-03 12:53:45 | 54.92130 | 19.90245 | 271° | 13km/h | 1820m | 8m/s | -31.9°C | 0.8% | 3.7hPa | 2.3V | 00:00:00 | 00:00:00 | 00:00:00 | |
| AA1-15 | 2026-09-03 12:53:43 | 54.92132 | 19.90260 | 270° | 15km/h | 1803m | 8.1m/s | -32°C | 0.8% | 3.7hPa | 2.3V | 00:00:00 | 00:00:00 | 00:00:00 | |
| AA1-15 | 2026-09-03 12:53:43 | 54.92134 | 19.90267 | 268° | 13km/h | 1794m | 7.9m/s | -32.1°C | 0.8% | 3.7hPa | 2.4V | 00:00:00 | 00:00:00 | 00:00:00 | |
| AA1-15 | 2026-09-03 12:53:41 | 54.92136 | 19.90280 | 266° | 13km/h | 1783m | 8.3m/s | -32°C | 0.8% | 3.7hPa | 2.4V | 00:00:00 | 00:00:00 | 00:00:00 | |
| AA1-15 | 2026-09-03 12:53:34 | 54.92139 | 19.90316 | 271° | 16km/h | 1774m | 8m/s | -31.9°C | 0.8% | 3.8hPa | 2.4V | 00:00:00 | 00:00:00 | 00:00:00 | |
| AA1-15 | 2026-09-03 12:53:33 | 54.92139 | 19.90320 | 273° | 13km/h | 1776m | 8.2m/s | -31.9°C | 0.8% | 3.7hPa | 2.4V | 00:00:00 | 00:00:00 | 00:00:00 | |
| AA1-15 | 2026-09-03 12:53:32 | 54.92136 | 19.90328 | 275° | 16km/h | 1771m | 8m/s | -31.9°C | 0.8% | 3.8hPa | 2.4V | 00:00:00 | 00:00:00 | 00:00:00 | |
| AA1-15 | 2026-09-03 12:53:31 | 54.92132 | 19.90340 | 270° | 16km/h | 1760m | 8.5m/s | -31.9°C | 0.8% | 3.8hPa | 2.4V | 00:00:00 | 00:00:00 | 00:00:00 | |
| AA1-15 | 2026-09-03 12:53:30 | 54.92128 | 19.90345 | 271° | 13km/h | 1755m | 8m/s | -31.9°C | 0.8% | 3.8hPa | 2.4V | 00:00:00 | 00:00:00 | 00:00:00 | |
| AA1-15 | 2026-09-03 12:53:24 | 54.92131 | 19.90436 | 261° | 95km/h | 1730m | 8.2m/s | -31.9°C | 0.9% | 3.8hPa | 2.4V | 00:00:00 | 00:00:00 | 00:00:00 | |
| AA1-15 | 2026-09-03 12:53:22 | 54.92131 | 19.90536 | 248° | 95km/h | 1716m | 8.3m/s | -32°C | 0.8% | 3.8hPa | 2.4V | 00:00:00 | 00:00:00 | 00:00:00 | |
| AA1-15 | 2026-09-03 12:53:20 | 54.92162 | 19.90608 | 239° | 95km/h | 1715m | 8.7m/s | -31.9°C | 0.8% | 3.9hPa | 2.4V | 00:00:00 | 00:00:00 | 00:00:00 | |
| AA1-15 | 2026-09-03 12:53:18 | 54.92172 | 19.90672 | 229° | 93km/h | 1668m | 10.3m/s | -31.9°C | 0.8% | 3.9hPa | 2.4V | 00:00:00 | 00:00:00 | 00:00:00 | |
| AA1-15 | 2026-09-03 12:53:17 | 54.92192 | 19.90695 | 218° | 95km/h | 1661m | 9.2m/s | -31.9°C | 0.8% | 3.9hPa | 2.3V | 00:00:00 | 00:00:00 | 00:00:00 | |
| AA1-15 | 2026-09-03 12:53:15 | 54.92225 | 19.90739 | 209° | 88km/h | 1634m | 10.5m/s | -32°C | 0.8% | 3.9hPa | 2.4V | 00:00:00 | 00:00:00 | 00:00:00 | |
| AA1-15 | 2026-09-03 12:53:14 | 54.92249 | 19.90753 | 200° | 95km/h | 1628m | 8.7m/s | -32°C | 0.8% | 3.9hPa | 2.3V | 00:00:00 | 00:00:00 | 00:00:00 | |
| AA1-15 | 2026-09-03 12:53:12 | 54.92295 | 19.90772 | 189° | 93km/h | 1605m | 8.9m/s | -32°C | 0.8% | 4hPa | 2.3V | 00:00:00 | 00:00:00 | 00:00:00 | |
| AA1-15 | 2026-09-03 12:53:10 | 54.92350 | 19.90773 | 176° | 95km/h | 1592m | 8.2m/s | -32.1°C | 0.9% | 3.9hPa | 2.4V | 00:00:00 | 00:00:00 | 00:00:00 | |
| AA1-15 | 2026-09-03 12:53:08 | 54.92404 | 19.90757 | 166° | 102km/h | 1576m | 9.6m/s | -32.2°C | 0.8% | 3.9hPa | 2.3V | 00:00:00 | 00:00:00 | 00:00:00 | |
| AA1-15 | 2026-09-03 12:53:06 | 54.92452 | 19.90726 | 151° | 93km/h | 1560m | 8.2m/s | -32.4°C | 0.8% | 4hPa | 2.4V | 00:00:00 | 00:00:00 | 00:00:00 | |
| AA1-15 | 2026-09-03 12:53:05 | 54.92502 | 19.90680 | 139° | 99km/h | 1543m | 9.1m/s | -32.4°C | 0.8% | 3.9hPa | 2.4V | 00:00:00 | 00:00:00 | 00:00:00 | |
| AA1-15 | 2026-09-03 12:53:03 | 54.92518 | 19.90650 | 131° | 93km/h | 1533m | 8.1m/s | -32.5°C | 0.8% | 4hPa | 2.3V | 00:00:00 | 00:00:00 | 00:00:00 | |
| AA1-15 | 2026-09-03 12:53:02 | 54.92532 | 19.90619 | 127° | 91km/h | 1522m | 8.1m/s | -32.6°C | 0.8% | 4hPa | 2.3V | 00:00:00 | 00:00:00 | 00:00:00 | |
| AA1-15 | 2026-09-03 12:52:59 | 54.92562 | 19.90507 | 109° | 97km/h | 1493m | 8m/s | -32.7°C | 0.8% | 4hPa | 2.4V | 00:00:00 | 00:00:00 | 00:00:00 | |
| AA1-15 | 2026-09-03 12:52:59 | 54.92568 | 19.90467 | 105° | 97km/h | 1483m | 8.2m/s | -32.7°C | 0.8% | 4hPa | 2.4V | 00:00:00 | 00:00:00 | 00:00:00 | |
| AA1-15 | 2026-09-03 12:52:55 | 54.92571 | 19.90344 | 84° | 95km/h | 1450m | 9.5m/s | -32.9°C | 0.8% | 4hPa | 2.4V | 00:00:00 | 00:00:00 | 00:00:00 | |
| AA1-15 | 2026-09-03 12:52:50 | 54.92545 | 19.90145 | 55° | 95km/h | 1404m | 8m/s | -33°C | 0.8% | 4hPa | 2.4V | 00:00:00 | 00:00:00 | 00:00:00 | |
| AA1-15 | 2026-09-03 12:52:49 | 54.92531 | 19.90112 | 49° | 95km/h | 1395m | 8.1m/s | -33°C | 0.8% | 4hPa | 2.3V | 00:00:00 | 00:00:00 | 00:00:00 | |
| AA1-15 | 2026-09-03 12:52:48 | 54.92497 | 19.90057 | 36° | 91km/h | 1377m | 8.2m/s | -33°C | 0.8% | 4.1hPa | 2.3V | 00:00:00 | 00:00:00 | 00:00:00 | |
| AA1-15 | 2026-09-03 12:52:45 | 54.92456 | 19.90016 | 24° | 95km/h | 1358m | 8.1m/s | -32.9°C | 0.8% | 4.1hPa | 2.3V | 00:00:00 | 00:00:00 | 00:00:00 | |
| AA1-15 | 2026-09-03 12:52:44 | 54.92434 | 19.90001 | 19° | 95km/h | 1349m | 8.1m/s | -32.9°C | 0.8% | 4.1hPa | 2.4V | 00:00:00 | 00:00:00 | 00:00:00 | |
| AA1-15 | 2026-09-03 12:52:42 | 54.92388 | 19.89982 | 6° | 97km/h | 1330m | 8.2m/s | -32.9°C | 0.8% | 4.1hPa | 2.4V | 00:00:00 | 00:00:00 | 00:00:00 | |
| AA1-15 | 2026-09-03 12:52:41 | 54.92340 | 19.89981 | 360° | 95km/h | 1312m | 7.9m/s | -33.1°C | 0.8% | 4.1hPa | 2.4V | 00:00:00 | 00:00:00 | 00:00:00 | |
| AA1-15 | 2026-09-03 12:52:38 | 54.92291 | 19.89981 | 0° | 95km/h | 1294m | 8m/s | -33.2°C | 0.8% | 4.1hPa | 2.4V | 00:00:00 | 00:00:00 | 00:00:00 | |
| AA1-15 | 2026-09-03 12:52:37 | 54.92241 | 19.89980 | 360° | 95km/h | 1276m | 7.9m/s | -33.2°C | 0.8% | 4.2hPa | 2.4V | 00:00:00 | 00:00:00 | 00:00:00 | |
| AA1-15 | 2026-09-03 12:52:35 | 54.92217 | 19.89979 | 0° | 102km/h | 1268m | 8.2m/s | -33.3°C | 0.8% | 4.2hPa | 2.4V | 00:00:00 | 00:00:00 | 00:00:00 | |
| AA1-15 | 2026-09-03 12:52:34 | 54.92193 | 19.89978 | 360° | 93km/h | 1259m | 8.1m/s | -33.3°C | 0.8% | 4.2hPa | 2.4V | 00:00:00 | 00:00:00 | 00:00:00 | |
| AA1-15 | 2026-09-03 12:52:32 | 54.92148 | 19.89975 | 0° | 93km/h | 1241m | 8m/s | -33.4°C | 0.8% | 4.2hPa | 2.4V | 00:00:00 | 00:00:00 | 00:00:00 | |
| AA1-15 | 2026-09-03 12:52:31 | 54.92126 | 19.89974 | 0° | 95km/h | 1233m | 8.1m/s | -33.4°C | 0.8% | 4.2hPa | 2.4V | 00:00:00 | 00:00:00 | 00:00:00 | |
| AA1-15 | 2026-09-03 12:52:29 | 54.92082 | 19.89974 | 360° | 93km/h | 1216m | 8.1m/s | -33.4°C | 0.8% | 4.2hPa | 2.4V | 00:00:00 | 00:00:00 | 00:00:00 | |
| AA1-15 | 2026-09-03 12:52:28 | 54.92059 | 19.89975 | 0° | 100km/h | 1207m | 8m/s | -33.3°C | 0.8% | 4.2hPa | 2.3V | 00:00:00 | 00:00:00 | 00:00:00 | |
| AA1-15 | 2026-09-03 12:52:28 | 54.92036 | 19.89974 | 0° | 93km/h | 1198m | 7.9m/s | -33.3°C | 0.8% | 4.2hPa | 2.4V | 00:00:00 | 00:00:00 | 00:00:00 | |
| AA1-15 | 2026-09-03 12:52:26 | 54.91990 | 19.89973 | 0° | 93km/h | 1181m | 8.3m/s | -33.4°C | 0.8% | 4.2hPa | 2.4V | 00:00:00 | 00:00:00 | 00:00:00 | |
| AA1-15 | 2026-09-03 12:52:23 | 54.91941 | 19.89973 | 0° | 93km/h | 1166m | 8.6m/s | -33.5°C | 0.8% | 4.2hPa | 2.4V | 00:00:00 | 00:00:00 | 00:00:00 | |
| AA1-15 | 2026-09-03 12:52:22 | 54.91918 | 19.89972 | 6° | 97km/h | 1159m | 8.1m/s | -33.6°C | 0.8% | 4.2hPa | 2.4V | 00:00:00 | 00:00:00 | 00:00:00 | |
| AA1-15 | 2026-09-03 12:52:20 | 54.91880 | 19.89939 | 41° | 99km/h | 1148m | 8m/s | -33.7°C | 0.8% | 4.2hPa | 2.3V | 00:00:00 | 00:00:00 | 00:00:00 | |
| AA1-15 | 2026-09-03 12:52:19 | 54.91866 | 19.89908 | 59° | 97km/h | 1143m | 8.1m/s | -33.8°C | 0.8% | 4.3hPa | 2.4V | 00:00:00 | 00:00:00 | 00:00:00 | |
| AA1-15 | 2026-09-03 12:52:18 | 54.91865 | 19.89829 | 99° | 99km/h | 1141m | 8.2m/s | -33.8°C | 0.8% | 4.3hPa | 2.4V | 00:00:00 | 00:00:00 | 00:00:00 | |
| AA1-15 | 2026-09-03 12:52:16 | 54.91879 | 19.89791 | 115° | 97km/h | 1141m | 8.2m/s | -33.8°C | 0.8% | 4.3hPa | 2.4V | 00:00:00 | 00:00:00 | 00:00:00 | |
| AA1-15 | 2026-09-03 12:52:14 | 54.91924 | 19.89736 | 153° | 99km/h | 1143m | 8.1m/s | -34°C | 0.8% | 4.3hPa | 2.4V | 00:00:00 | 00:00:00 | 00:00:00 | |
| AA1-15 | 2026-09-03 12:52:13 | 54.91955 | 19.89725 | 171° | 95km/h | 1145m | 8.1m/s | -34°C | 0.8% | 4.3hPa | 2.4V | 00:00:00 | 00:00:00 | 00:00:00 | |
| AA1-15 | 2026-09-03 12:52:11 | 54.92006 | 19.89739 | 207° | 99km/h | 1142m | 7.8m/s | -34.1°C | 0.8% | 4.3hPa | 2.4V | 00:00:00 | 00:00:00 | 00:00:00 | |
| AA1-15 | 2026-09-03 12:52:09 | 54.92049 | 19.89799 | 242° | 97km/h | 1142m | 8m/s | -34.2°C | 0.8% | 4.3hPa | 2.4V | 00:00:00 | 00:00:00 | 00:00:00 | |
| AA1-15 | 2026-09-03 12:52:08 | 54.92061 | 19.89840 | 263° | 97km/h | 1142m | 8.1m/s | -34.2°C | 0.8% | 4.3hPa | 2.4V | 00:00:00 | 00:00:00 | 00:00:00 | |
| AA1-15 | 2026-09-03 12:52:07 | 54.92070 | 19.89927 | 270° | 95km/h | 1139m | 8.1m/s | -34.2°C | 0.8% | 4.3hPa | 2.4V | 00:00:00 | 00:00:00 | 00:00:00 | |
| AA1-15 | 2026-09-03 12:52:05 | 54.92075 | 19.89970 | 270° | 95km/h | 1139m | 8m/s | -34.3°C | 0.8% | 4.3hPa | 2.4V | 00:00:00 | 00:00:00 | 00:00:00 | |
| AA1-15 | 2026-09-03 12:52:03 | 54.92092 | 19.90057 | 270° | 97km/h | 1148m | 8.4m/s | -34.3°C | 0.8% | 4.4hPa | 2.4V | 00:00:00 | 00:00:00 | 00:00:00 | |
| AA1-15 | 2026-09-03 12:52:01 | 54.92132 | 19.90147 | 271° | 97km/h | 1193m | 7.9m/s | -34.3°C | 0.8% | 4.4hPa | 2.4V | 00:00:00 | 00:00:00 | 00:00:00 | |
| AA1-15 | 2026-09-03 12:51:59 | 54.92198 | 19.90231 | 270° | 95km/h | 1267m | 8.1m/s | -34.2°C | 0.8% | 4.4hPa | 2.4V | 00:00:00 | 00:00:00 | 00:00:00 | |
| AA1-15 | 2026-09-03 12:51:58 | 54.92244 | 19.90271 | 270° | 95km/h | 1318m | 8m/s | -34.2°C | 0.8% | 4.4hPa | 2.4V | 00:00:00 | 00:00:00 | 00:00:00 | |
| AA1-15 | 2026-09-03 12:51:57 | 54.92343 | 19.90351 | 270° | 95km/h | 1429m | 7.9m/s | -34.1°C | 0.8% | 4.4hPa | 2.3V | 00:00:00 | 00:00:00 | 00:00:00 | |
| AA1-15 | 2026-09-03 12:51:55 | 54.92420 | 19.90447 | 269° | 95km/h | 1515m | 7.9m/s | -34.1°C | 0.9% | 4.4hPa | 2.4V | 00:00:00 | 00:00:00 | 00:00:00 | |
| AA1-15 | 2026-09-03 12:51:53 | 54.92572 | 19.90564 | 263° | 99km/h | 1733m | 5.8m/s | -34.1°C | 0.9% | 4.5hPa | 2.4V | 00:00:00 | 00:00:00 | 00:00:00 | |
| AA1-15 | 2026-09-03 12:51:51 | 54.92648 | 19.90661 | 254° | 93km/h | 1853m | 7.1m/s | -34.1°C | 0.8% | 4.5hPa | 2.4V | 00:00:00 | 00:00:00 | 00:00:00 | |
| AA1-15 | 2026-09-03 12:51:48 | 54.92806 | 19.91124 | 217° | 100km/h | 159087m | 4.2m/s | -34.1°C | 0.8% | 4.5hPa | 2.4V | 00:00:00 | 00:00:00 | 00:00:00 | |
| AA1-15 | 2026-09-03 12:51:38 | 54.88359 | 20.04051 | 63° | 4km/h | 159087m | 8.3m/s | -34.5°C | 0.8% | 4.5hPa | 2.4V | 00:00:00 | 00:00:00 | 00:00:00 | |
| AA1-15 | 2026-09-03 12:51:27 | 54.88334 | 20.04040 | 0° | 11km/h | 2931m | 7.8m/s | -34.6°C | 0.8% | 4.6hPa | 2.4V | 00:00:00 | 00:00:00 | 00:00:00 | |
| AA1-15 | 2026-09-03 12:51:16 | 54.88260 | 20.04041 | 1° | 16km/h | 2870m | 8.1m/s | -34.4°C | 0.8% | 4.7hPa | 2.4V | 00:00:00 | 00:00:00 | 00:00:00 | |
| AA1-15 | 2026-09-03 12:51:06 | 54.88227 | 20.04040 | 0° | 16km/h | 2781m | 8.3m/s | -34.4°C | 0.8% | 4.8hPa | 2.4V | 00:00:00 | 00:00:00 | 00:00:00 | |
| AA1-15 | 2026-09-03 12:50:55 | 54.88201 | 20.04042 | 360° | 11km/h | 2701m | 8.2m/s | -34.7°C | 0.8% | 4.9hPa | 2.4V | 00:00:00 | 00:00:00 | 00:00:00 | |
| AA1-15 | 2026-09-03 12:50:44 | 54.88177 | 20.04049 | 360° | 9km/h | 2583m | 8m/s | -34.6°C | 0.8% | 5hPa | 2.4V | 00:00:00 | 00:00:00 | 00:00:00 | |
| AA1-15 | 2026-09-03 12:50:33 | 54.88161 | 20.04053 | 1° | 16km/h | 2511m | 8m/s | -34.7°C | 0.8% | 5.1hPa | 2.4V | 00:00:00 | 00:00:00 | 00:00:00 | |
| AA1-15 | 2026-09-03 12:50:23 | 54.88135 | 20.04062 | 1° | 16km/h | 2433m | 8.1m/s | -34.9°C | 0.8% | 5.1hPa | 2.4V | 00:00:00 | 00:00:00 | 00:00:00 | |
| AA1-15 | 2026-09-03 12:50:13 | 54.88106 | 20.04064 | 1° | 11km/h | 2381m | 8.2m/s | -34.8°C | 0.8% | 5.2hPa | 2.4V | 00:00:00 | 00:00:00 | 00:00:00 | |
| AA1-15 | 2026-09-03 12:50:02 | 54.88067 | 20.04060 | 360° | 16km/h | 2317m | 8m/s | -34.9°C | 0.8% | 5.3hPa | 2.4V | 00:00:00 | 00:00:00 | 00:00:00 | |
| AA1-15 | 2026-09-03 12:49:52 | 54.88030 | 20.04062 | 359° | 18km/h | 2211m | 8.5m/s | -35°C | 0.8% | 5.4hPa | 2.4V | 00:00:00 | 00:00:00 | 00:00:00 | |
| AA1-15 | 2026-09-03 12:49:41 | 54.87983 | 20.04058 | 0° | 11km/h | 2089m | 8m/s | -35.4°C | 0.8% | 5.5hPa | 2.4V | 00:00:00 | 00:00:00 | 00:00:00 | |
| AA1-15 | 2026-09-03 12:49:31 | 54.87950 | 20.04049 | 359° | 16km/h | 1999m | 8.2m/s | -35.8°C | 0.8% | 5.6hPa | 2.4V | 00:00:00 | 00:00:00 | 00:00:00 | |
| AA1-15 | 2026-09-03 12:49:29 | 54.87943 | 20.04047 | 3° | 9km/h | 1982m | 8.4m/s | -35.8°C | 0.8% | 5.5hPa | 2.4V | 00:00:00 | 00:00:00 | 00:00:00 | |
| AA1-15 | 2026-09-03 12:49:27 | 54.87938 | 20.04046 | 7° | 15km/h | 1970m | 8.3m/s | -35.9°C | 0.8% | 5.6hPa | 2.4V | 00:00:00 | 00:00:00 | 00:00:00 | |
| AA1-15 | 2026-09-03 12:49:26 | 54.87924 | 20.04047 | 1° | 95km/h | 1959m | 8.2m/s | -35.9°C | 0.8% | 5.5hPa | 2.4V | 00:00:00 | 00:00:00 | 00:00:00 | |
| AA1-15 | 2026-09-03 12:49:25 | 54.87900 | 20.04047 | 358° | 91km/h | 1948m | 10.3m/s | -35.9°C | 0.8% | 5.6hPa | 2.4V | 00:00:00 | 00:00:00 | 00:00:00 | |
| AA1-15 | 2026-09-03 12:49:24 | 54.87845 | 20.04052 | 355° | 100km/h | 1926m | 8.1m/s | -35.9°C | 0.7% | 5.6hPa | 2.4V | 00:00:00 | 00:00:00 | 00:00:00 | |
| AA1-15 | 2026-09-03 12:49:21 | 54.87793 | 20.04063 | 352° | 95km/h | 1907m | 7.8m/s | -36°C | 0.8% | 5.7hPa | 2.4V | 00:00:00 | 00:00:00 | 00:00:00 | |
| AA1-15 | 2026-09-03 12:49:20 | 54.87769 | 20.04070 | 349° | 97km/h | 1900m | 8m/s | -36°C | 0.7% | 5.7hPa | 2.4V | 00:00:00 | 00:00:00 | 00:00:00 | |
| AA1-15 | 2026-09-03 12:49:19 | 54.87747 | 20.04078 | 347° | 91km/h | 1894m | 8m/s | -36.1°C | 0.8% | 5.6hPa | 2.4V | 00:00:00 | 00:00:00 | 00:00:00 | |
| AA1-15 | 2026-09-03 12:49:18 | 54.87702 | 20.04097 | 347° | 93km/h | 1881m | 8.1m/s | -36.2°C | 0.7% | 5.6hPa | 2.4V | 00:00:00 | 00:00:00 | 00:00:00 | |
| AA1-15 | 2026-09-03 12:49:16 | 54.87681 | 20.04108 | 343° | 95km/h | 1875m | 8.1m/s | -36.2°C | 0.7% | 5.7hPa | 2.4V | 00:00:00 | 00:00:00 | 00:00:00 | |
| AA1-15 | 2026-09-03 12:49:15 | 54.87658 | 20.04120 | 343° | 100km/h | 1871m | 7.9m/s | -36.2°C | 0.7% | 5.7hPa | 2.4V | 00:00:00 | 00:00:00 | 00:00:00 | |
| AA1-15 | 2026-09-03 12:49:13 | 54.87592 | 20.04162 | 337° | 100km/h | 1855m | 7.8m/s | -36.2°C | 0.7% | 5.7hPa | 2.4V | 00:00:00 | 00:00:00 | 00:00:00 | |
| AA1-15 | 2026-09-03 12:49:11 | 54.87571 | 20.04179 | 334° | 97km/h | 1853m | 8m/s | -36.2°C | 0.7% | 5.7hPa | 2.4V | 00:00:00 | 00:00:00 | 00:00:00 | |
| AA1-15 | 2026-09-03 12:49:10 | 54.87552 | 20.04196 | 335° | 97km/h | 1851m | 7.8m/s | -36.2°C | 0.7% | 5.7hPa | 2.4V | 00:00:00 | 00:00:00 | 00:00:00 | |
| AA1-15 | 2026-09-03 12:49:08 | 54.87514 | 20.04232 | 331° | 93km/h | 1846m | 8.2m/s | -36.1°C | 0.7% | 5.7hPa | 2.4V | 00:00:00 | 00:00:00 | 00:00:00 | |
| AA1-15 | 2026-09-03 12:49:06 | 54.87475 | 20.04272 | 329° | 95km/h | 1837m | 8.2m/s | -36.1°C | 0.7% | 5.8hPa | 2.4V | 00:00:00 | 00:00:00 | 00:00:00 | |
| AA1-15 | 2026-09-03 12:49:04 | 54.87437 | 20.04317 | 326° | 97km/h | 1827m | 7.8m/s | -36.1°C | 0.8% | 5.8hPa | 2.4V | 00:00:00 | 00:00:00 | 00:00:00 | |
| AA1-15 | 2026-09-03 12:49:02 | 54.87398 | 20.04366 | 322° | 95km/h | 1815m | 7.9m/s | -36°C | 0.7% | 5.8hPa | 2.4V | 00:00:00 | 00:00:00 | 00:00:00 | |
| AA1-15 | 2026-09-03 12:49:00 | 54.87361 | 20.04420 | 318° | 95km/h | 1796m | 8.1m/s | -36.1°C | 0.7% | 5.8hPa | 2.4V | 00:00:00 | 00:00:00 | 00:00:00 | |
| AA1-15 | 2026-09-03 12:48:59 | 54.87344 | 20.04449 | 315° | 93km/h | 1786m | 8.1m/s | -36.1°C | 0.8% | 5.8hPa | 2.4V | 00:00:00 | 00:00:00 | 00:00:00 | |
| AA1-15 | 2026-09-03 12:48:57 | 54.87309 | 20.04509 | 311° | 95km/h | 1766m | 8m/s | -36.1°C | 0.7% | 5.8hPa | 2.4V | 00:00:00 | 00:00:00 | 00:00:00 | |
| AA1-15 | 2026-09-03 12:48:55 | 54.87274 | 20.04574 | 311° | 97km/h | 1743m | 8.6m/s | -36.1°C | 0.8% | 5.8hPa | 2.4V | 00:00:00 | 00:00:00 | 00:00:00 | |
| AA1-15 | 2026-09-03 12:48:53 | 54.87232 | 20.04647 | 310° | 99km/h | 1704m | 9.2m/s | -36.1°C | 0.7% | 5.8hPa | 2.4V | 00:00:00 | 00:00:00 | 00:00:00 | |
| AA1-15 | 2026-09-03 12:48:51 | 54.87197 | 20.04717 | 306° | 100km/h | 1677m | 9.5m/s | -36.1°C | 0.7% | 5.9hPa | 2.4V | 00:00:00 | 00:00:00 | 00:00:00 | |
| AA1-15 | 2026-09-03 12:48:49 | 54.87171 | 20.04781 | 304° | 99km/h | 1662m | 9.4m/s | -36.2°C | 0.7% | 5.9hPa | 2.4V | 00:00:00 | 00:00:00 | 00:00:00 | |
| AA1-15 | 2026-09-03 12:48:48 | 54.87159 | 20.04820 | 303° | 100km/h | 1651m | 8.3m/s | -36.1°C | 0.7% | 5.9hPa | 2.4V | 00:00:00 | 00:00:00 | 00:00:00 | |
| AA1-15 | 2026-09-03 12:48:47 | 54.87137 | 20.04899 | 298° | 93km/h | 1629m | 8.3m/s | -36.1°C | 0.7% | 5.9hPa | 2.4V | 00:00:00 | 00:00:00 | 00:00:00 | |
| AA1-15 | 2026-09-03 12:48:44 | 54.87111 | 20.04978 | 293° | 95km/h | 1598m | 7.5m/s | -36.1°C | 0.7% | 5.9hPa | 2.4V | 00:00:00 | 00:00:00 | 00:00:00 | |
| AA1-15 | 2026-09-03 12:48:42 | 54.87093 | 20.05053 | 289° | 93km/h | 1580m | 8.1m/s | -36.2°C | 0.7% | 5.9hPa | 2.4V | 00:00:00 | 00:00:00 | 00:00:00 | |
| AA1-15 | 2026-09-03 12:48:41 | 54.87047 | 20.05221 | 285° | 97km/h | 1515m | 8.1m/s | -36.4°C | 0.7% | 6hPa | 2.4V | 00:00:00 | 00:00:00 | 00:00:00 | |
| AA1-15 | 2026-09-03 12:48:39 | 54.87044 | 20.05260 | 282° | 95km/h | 1511m | 8.4m/s | -36.4°C | 0.7% | 6hPa | 2.4V | 00:00:00 | 00:00:00 | 00:00:00 | |
| AA1-15 | 2026-09-03 12:48:35 | 54.87034 | 20.05340 | 281° | 93km/h | 1493m | 8.1m/s | -36.5°C | 0.7% | 6hPa | 2.4V | 00:00:00 | 00:00:00 | 00:00:00 | |
| AA1-15 | 2026-09-03 12:48:34 | 54.87028 | 20.05380 | 281° | 95km/h | 1484m | 8m/s | -36.5°C | 0.7% | 6hPa | 2.4V | 00:00:00 | 00:00:00 | 00:00:00 | |
| AA1-15 | 2026-09-03 12:48:32 | 54.87020 | 20.05460 | 276° | 97km/h | 1468m | 8m/s | -36.4°C | 0.7% | 6hPa | 2.4V | 00:00:00 | 00:00:00 | 00:00:00 | |
| AA1-15 | 2026-09-03 12:48:30 | 54.87013 | 20.05541 | 275° | 97km/h | 1450m | 8.7m/s | -36.4°C | 0.7% | 6hPa | 2.4V | 00:00:00 | 00:00:00 | 00:00:00 | |
| AA1-15 | 2026-09-03 12:48:28 | 54.87013 | 20.05622 | 268° | 99km/h | 1441m | 8.6m/s | -36.4°C | 0.7% | 6.1hPa | 2.4V | 00:00:00 | 00:00:00 | 00:00:00 | |
| AA1-15 | 2026-09-03 12:48:27 | 54.87015 | 20.05662 | 269° | 97km/h | 1435m | 8.2m/s | -36.4°C | 0.7% | 6hPa | 2.4V | 00:00:00 | 00:00:00 | 00:00:00 | |
| AA1-15 | 2026-09-03 12:48:21 | 54.87040 | 20.05890 | 259° | 95km/h | 1433m | 8.5m/s | -36.5°C | 0.7% | 6.1hPa | 2.4V | 00:00:00 | 00:00:00 | 00:00:00 | |
| AA1-15 | 2026-09-03 12:48:20 | 54.87046 | 20.05925 | 257° | 97km/h | 1434m | 9.2m/s | -36.5°C | 0.7% | 6.1hPa | 2.4V | 00:00:00 | 00:00:00 | 00:00:00 | |
| AA1-15 | 2026-09-03 12:48:18 | 54.87063 | 20.05992 | 251° | 97km/h | 1444m | 8.8m/s | -36.7°C | 0.7% | 6.1hPa | 2.4V | 00:00:00 | 00:00:00 | 00:00:00 | |
| AA1-15 | 2026-09-03 12:48:17 | 54.87071 | 20.06027 | 251° | 97km/h | 1443m | 8.4m/s | -36.7°C | 0.7% | 6.2hPa | 2.4V | 00:00:00 | 00:00:00 | 00:00:00 | |
| AA1-15 | 2026-09-03 12:48:16 | 54.87077 | 20.06069 | 252° | 97km/h | 1427m | 8.4m/s | -36.7°C | 0.7% | 6.2hPa | 2.4V | 00:00:00 | 00:00:00 | 00:00:00 | |
| AA1-15 | 2026-09-03 12:48:14 | 54.87075 | 20.06160 | 249° | 91km/h | 1359m | 8.7m/s | -36.8°C | 0.7% | 6.1hPa | 2.4V | 00:00:00 | 00:00:00 | 00:00:00 | |
| AA1-15 | 2026-09-03 12:48:13 | 54.87076 | 20.06259 | 243° | 99km/h | 1285m | 7.8m/s | -36.8°C | 0.7% | 6.1hPa | 2.4V | 00:00:00 | 00:00:00 | 00:00:00 | |
| AA1-15 | 2026-09-03 12:48:11 | 54.87103 | 20.06348 | 240° | 95km/h | 1252m | 8m/s | -36.8°C | 0.7% | 6.2hPa | 2.4V | 00:00:00 | 00:00:00 | 00:00:00 | |
| AA1-15 | 2026-09-03 12:48:08 | 54.87136 | 20.06496 | 231° | 99km/h | 1180m | 7.7m/s | -36.8°C | 0.7% | 6.2hPa | 2.4V | 00:00:00 | 00:00:00 | 00:00:00 | |
| AA1-15 | 2026-09-03 12:48:04 | 54.87152 | 20.06561 | 232° | 97km/h | 1145m | 8.7m/s | -36.8°C | 0.7% | 6.2hPa | 2.4V | 00:00:00 | 00:00:00 | 00:00:00 | |
| AA1-15 | 2026-09-03 12:48:02 | 54.87187 | 20.06624 | 227° | 97km/h | 1132m | 8.8m/s | -36.9°C | 0.7% | 6.3hPa | 2.4V | 00:00:00 | 00:00:00 | 00:00:00 | |
| AA1-15 | 2026-09-03 12:47:54 | 54.91870 | 22.60201 | 0° | 0km/h | 159087m | 0m/s | -37.1°C | 0.7% | 6.3hPa | 2.4V | 00:00:00 | 00:00:00 | 00:00:00 | |
| AA1-15 | 2026-09-03 12:47:44 | 54.91864 | 22.60202 | 358° | 11km/h | 159087m | 8.2m/s | -37.2°C | 0.7% | 6.4hPa | 2.4V | 00:00:00 | 00:00:00 | 00:00:00 | |
| AA1-15 | 2026-09-03 12:47:33 | 54.91837 | 22.60204 | 357° | 11km/h | 1994m | 7.7m/s | -37.4°C | 0.6% | 6.4hPa | 2.4V | 00:00:00 | 00:00:00 | 00:00:00 | |
| AA1-15 | 2026-09-03 12:47:32 | 54.91832 | 22.60206 | 357° | 15km/h | 1977m | 8.1m/s | -37.5°C | 0.6% | 6.4hPa | 2.4V | 00:00:00 | 00:00:00 | 00:00:00 | |
| AA1-15 | 2026-09-03 12:47:30 | 54.91829 | 22.60207 | 355° | 11km/h | 1968m | 8.4m/s | -37.5°C | 0.6% | 6.5hPa | 2.4V | 00:00:00 | 00:00:00 | 00:00:00 | |
| AA1-15 | 2026-09-03 12:47:28 | 54.91820 | 22.60208 | 359° | 18km/h | 1951m | 8.8m/s | -37.6°C | 0.6% | 6.5hPa | 2.4V | 00:00:00 | 00:00:00 | 00:00:00 | |
| AA1-15 | 2026-09-03 12:47:27 | 54.91815 | 22.60209 | 0° | 16km/h | 1942m | 8.3m/s | -37.6°C | 0.6% | 6.5hPa | 2.4V | 00:00:00 | 00:00:00 | 00:00:00 | |
| AA1-15 | 2026-09-03 12:47:26 | 54.91809 | 22.60207 | 359° | 15km/h | 1932m | 8m/s | -37.7°C | 0.7% | 6.5hPa | 2.4V | 00:00:00 | 00:00:00 | 00:00:00 | |
| AA1-15 | 2026-09-03 12:47:24 | 54.91703 | 22.60171 | 0° | 0km/h | 159087m | 0m/s | -38°C | 0.6% | 6.5hPa | 2.4V | 00:00:00 | 00:00:00 | 00:00:00 | |
| AA1-15 | 2026-09-03 12:47:13 | 54.91656 | 22.60201 | 340° | 99km/h | 159087m | 9.3m/s | -38.6°C | 0.6% | 6.6hPa | 2.4V | 00:00:00 | 00:00:00 | 00:00:00 | |
| AA1-15 | 2026-09-03 12:47:03 | 54.91421 | 22.60350 | 337° | 102km/h | 1773m | 9.1m/s | -39.2°C | 0.6% | 6.7hPa | 2.4V | 00:00:00 | 00:00:00 | 00:00:00 | |
| AA1-15 | 2026-09-03 12:47:02 | 54.91399 | 22.60368 | 337° | 95km/h | 1760m | 9.3m/s | -39.2°C | 0.7% | 6.7hPa | 2.4V | 00:00:00 | 00:00:00 | 00:00:00 | |
| AA1-15 | 2026-09-03 12:47:00 | 54.91358 | 22.60409 | 332° | 99km/h | 1745m | 7.8m/s | -39.3°C | 0.6% | 6.7hPa | 2.4V | 00:00:00 | 00:00:00 | 00:00:00 | |
| AA1-15 | 2026-09-03 12:46:59 | 54.91337 | 22.60430 | 331° | 95km/h | 1745m | 8.1m/s | -39.3°C | 0.7% | 6.8hPa | 2.4V | 00:00:00 | 00:00:00 | 00:00:00 | |
| AA1-15 | 2026-09-03 12:46:57 | 54.91296 | 22.60474 | 326° | 93km/h | 1735m | 8.2m/s | -39.3°C | 0.6% | 6.7hPa | 2.4V | 00:00:00 | 00:00:00 | 00:00:00 | |
| AA1-15 | 2026-09-03 12:46:55 | 54.91258 | 22.60523 | 324° | 99km/h | 1722m | 8.2m/s | -39.4°C | 0.6% | 6.8hPa | 2.4V | 00:00:00 | 00:00:00 | 00:00:00 | |
| AA1-15 | 2026-09-03 12:46:54 | 54.91221 | 22.60572 | 322° | 95km/h | 1708m | 8.3m/s | -39.5°C | 0.7% | 6.8hPa | 2.4V | 00:00:00 | 00:00:00 | 00:00:00 | |
| AA1-15 | 2026-09-03 12:46:53 | 54.91204 | 22.60598 | 319° | 93km/h | 1702m | 8.2m/s | -39.5°C | 0.6% | 6.8hPa | 2.4V | 00:00:00 | 00:00:00 | 00:00:00 | |
| AA1-15 | 2026-09-03 12:46:51 | 54.91175 | 22.60647 | 314° | 91km/h | 1685m | 8.3m/s | -39.7°C | 0.6% | 6.8hPa | 2.4V | 00:00:00 | 00:00:00 | 00:00:00 | |
| AA1-15 | 2026-09-03 12:46:50 | 54.91156 | 22.60669 | 315° | 91km/h | 1674m | 8.2m/s | -39.7°C | 0.6% | 6.8hPa | 2.4V | 00:00:00 | 00:00:00 | 00:00:00 | |
| AA1-15 | 2026-09-03 12:46:48 | 54.91135 | 22.60693 | 311° | 93km/h | 1667m | 7.3m/s | -39.8°C | 0.6% | 6.8hPa | 2.4V | 00:00:00 | 00:00:00 | 00:00:00 | |
| AA1-15 | 2026-09-03 12:46:47 | 54.91099 | 22.60724 | 311° | 89km/h | 1681m | 10.8m/s | -39.9°C | 0.6% | 6.9hPa | 2.4V | 00:00:00 | 00:00:00 | 00:00:00 | |
| AA1-15 | 2026-09-03 12:46:45 | 54.91071 | 22.60788 | 311° | 99km/h | 1656m | 8.3m/s | -39.9°C | 0.7% | 6.9hPa | 2.4V | 00:00:00 | 00:00:00 | 00:00:00 | |
| AA1-15 | 2026-09-03 12:46:44 | 54.91063 | 22.60817 | 309° | 95km/h | 1646m | 8.6m/s | -39.9°C | 0.7% | 6.9hPa | 2.4V | 00:00:00 | 00:00:00 | 00:00:00 | |
| AA1-15 | 2026-09-03 12:46:42 | 54.91045 | 22.60880 | 304° | 93km/h | 1624m | 8.7m/s | -39.9°C | 0.7% | 6.9hPa | 2.4V | 00:00:00 | 00:00:00 | 00:00:00 | |
| AA1-15 | 2026-09-03 12:46:40 | 54.91016 | 22.60948 | 302° | 99km/h | 1603m | 8.8m/s | -39.9°C | 0.7% | 6.9hPa | 2.4V | 00:00:00 | 00:00:00 | 00:00:00 | |
| AA1-15 | 2026-09-03 12:46:38 | 54.90990 | 22.61017 | 300° | 95km/h | 1582m | 8.7m/s | -39.9°C | 0.6% | 6.9hPa | 2.4V | 00:00:00 | 00:00:00 | 00:00:00 | |
| AA1-15 | 2026-09-03 12:46:36 | 54.90970 | 22.61091 | 294° | 95km/h | 1565m | 8.3m/s | -39.9°C | 0.7% | 6.9hPa | 2.4V | 00:00:00 | 00:00:00 | 00:00:00 | |
| AA1-15 | 2026-09-03 12:46:35 | 54.90962 | 22.61129 | 295° | 99km/h | 1554m | 8.2m/s | -39.9°C | 0.7% | 6.9hPa | 2.4V | 00:00:00 | 00:00:00 | 00:00:00 | |
| AA1-15 | 2026-09-03 12:46:32 | 54.90937 | 22.61247 | 289° | 97km/h | 1520m | 8.4m/s | -40°C | 0.7% | 7hPa | 2.4V | 00:00:00 | 00:00:00 | 00:00:00 | |
| AA1-15 | 2026-09-03 12:46:30 | 54.90921 | 22.61328 | 288° | 95km/h | 1494m | 7.7m/s | -40°C | 0.7% | 7hPa | 2.4V | 00:00:00 | 00:00:00 | 00:00:00 | |
| AA1-15 | 2026-09-03 12:46:29 | 54.90913 | 22.61370 | 285° | 97km/h | 1482m | 8.1m/s | -40°C | 0.7% | 7hPa | 2.4V | 00:00:00 | 00:00:00 | 00:00:00 | |
| AA1-15 | 2026-09-03 12:46:28 | 54.90902 | 22.61453 | 280° | 95km/h | 1459m | 8.3m/s | -40.1°C | 0.7% | 7hPa | 2.4V | 00:00:00 | 00:00:00 | 00:00:00 | |
| AA1-15 | 2026-09-03 12:46:25 | 54.90894 | 22.61538 | 280° | 97km/h | 1444m | 8.2m/s | -40.1°C | 0.7% | 7hPa | 2.4V | 00:00:00 | 00:00:00 | 00:00:00 | |
| AA1-15 | 2026-09-03 12:46:23 | 54.90889 | 22.61624 | 275° | 97km/h | 1438m | 9.4m/s | -40.1°C | 0.7% | 7hPa | 2.4V | 00:00:00 | 00:00:00 | 00:00:00 | |
| AA1-15 | 2026-09-03 12:46:22 | 54.90889 | 22.61665 | 266° | 100km/h | 1431m | 9.6m/s | -40°C | 0.7% | 7hPa | 2.4V | 00:00:00 | 00:00:00 | 00:00:00 | |
| AA1-15 | 2026-09-03 12:46:20 | 54.90890 | 22.61751 | 270° | 95km/h | 1413m | 8.1m/s | -40°C | 0.7% | 7.1hPa | 2.4V | 00:00:00 | 00:00:00 | 00:00:00 | |
| AA1-15 | 2026-09-03 12:46:19 | 54.90892 | 22.61793 | 267° | 95km/h | 1404m | 8.2m/s | -40°C | 0.7% | 7.1hPa | 2.4V | 00:00:00 | 00:00:00 | 00:00:00 | |
| AA1-15 | 2026-09-03 12:46:17 | 54.90896 | 22.61878 | 266° | 95km/h | 1384m | 8m/s | -39.9°C | 0.7% | 7.1hPa | 2.4V | 00:00:00 | 00:00:00 | 00:00:00 | |
| AA1-15 | 2026-09-03 12:46:15 | 54.90903 | 22.61962 | 263° | 95km/h | 1368m | 8.2m/s | -39.9°C | 0.7% | 7.1hPa | 2.4V | 00:00:00 | 00:00:00 | 00:00:00 | |
| AA1-15 | 2026-09-03 12:46:15 | 54.90905 | 22.62004 | 260° | 99km/h | 1360m | 8m/s | -39.9°C | 0.7% | 7.1hPa | 2.4V | 00:00:00 | 00:00:00 | 00:00:00 | |
| AA1-15 | 2026-09-03 12:46:12 | 54.90909 | 22.62087 | 258° | 95km/h | 1346m | 7.7m/s | -39.9°C | 0.7% | 7.1hPa | 2.4V | 00:00:00 | 00:00:00 | 00:00:00 | |
| AA1-15 | 2026-09-03 12:46:11 | 54.90914 | 22.62128 | 256° | 97km/h | 1340m | 8.3m/s | -39.9°C | 0.7% | 7.2hPa | 2.4V | 00:00:00 | 00:00:00 | 00:00:00 | |
| AA1-15 | 2026-09-03 12:46:10 | 54.90920 | 22.62169 | 253° | 95km/h | 1333m | 8.5m/s | -39.8°C | 0.7% | 7.2hPa | 2.4V | 00:00:00 | 00:00:00 | 00:00:00 | |
| AA1-15 | 2026-09-03 12:46:09 | 54.90927 | 22.62210 | 250° | 100km/h | 1324m | 8m/s | -39.8°C | 0.7% | 7.2hPa | 2.4V | 00:00:00 | 00:00:00 | 00:00:00 | |
| AA1-15 | 2026-09-03 12:46:08 | 54.90945 | 22.62289 | 251° | 97km/h | 1305m | 7.3m/s | -39.9°C | 0.7% | 7.2hPa | 2.4V | 00:00:00 | 00:00:00 | 00:00:00 | |
| AA1-15 | 2026-09-03 12:46:07 | 54.90954 | 22.62329 | 248° | 95km/h | 1301m | 7.5m/s | -39.9°C | 0.7% | 7.2hPa | 2.4V | 00:00:00 | 00:00:00 | 00:00:00 | |
| AA1-15 | 2026-09-03 12:46:06 | 54.90963 | 22.62368 | 249° | 95km/h | 1294m | 7.9m/s | -39.9°C | 0.7% | 7.2hPa | 2.4V | 00:00:00 | 00:00:00 | 00:00:00 | |
| AA1-15 | 2026-09-03 12:46:03 | 54.90982 | 22.62445 | 244° | 97km/h | 1279m | 8.1m/s | -39.8°C | 0.7% | 7.2hPa | 2.4V | 00:00:00 | 00:00:00 | 00:00:00 | |
| AA1-15 | 2026-09-03 12:46:02 | 54.91005 | 22.62520 | 239° | 95km/h | 1264m | 8m/s | -39.8°C | 0.7% | 7.2hPa | 2.4V | 00:00:00 | 00:00:00 | 00:00:00 | |
| AA1-15 | 2026-09-03 12:45:59 | 54.91028 | 22.62594 | 232° | 104km/h | 1248m | 7.9m/s | -39.9°C | 0.7% | 7.2hPa | 2.4V | 00:00:00 | 00:00:00 | 00:00:00 | |
| AA1-15 | 2026-09-03 12:45:57 | 54.91056 | 22.62666 | 232° | 99km/h | 1233m | 8.5m/s | -39.9°C | 0.7% | 7.3hPa | 2.4V | 00:00:00 | 00:00:00 | 00:00:00 | |
| AA1-15 | 2026-09-03 12:45:55 | 54.91082 | 22.62735 | 232° | 97km/h | 1220m | 8m/s | -39.9°C | 0.7% | 7.3hPa | 2.4V | 00:00:00 | 00:00:00 | 00:00:00 | |
| AA1-15 | 2026-09-03 12:45:54 | 54.91096 | 22.62770 | 228° | 99km/h | 1218m | 7.8m/s | -39.8°C | 0.7% | 7.3hPa | 2.4V | 00:00:00 | 00:00:00 | 00:00:00 | |
| AA1-15 | 2026-09-03 12:45:52 | 54.91112 | 22.62840 | 227° | 97km/h | 1238m | 7.7m/s | -39.9°C | 0.7% | 7.3hPa | 2.4V | 00:00:00 | 00:00:00 | 00:00:00 | |
| AA1-15 | 2026-09-03 12:45:42 | 54.95124 | 19.26018 | 0° | 0km/h | 159087m | 0m/s | -39.7°C | 0.7% | 7.5hPa | 2.4V | 00:00:00 | 00:00:00 | 00:00:00 | |
| AA1-15 | 2026-09-03 12:45:31 | 54.95193 | 19.26138 | 225° | 38km/h | 159087m | 4.2m/s | -39.7°C | 0.8% | 7.6hPa | 2.4V | 00:00:00 | 00:00:00 | 00:00:00 | |
| AA1-15 | 2026-09-03 12:45:21 | 54.95205 | 19.26209 | 271° | 13km/h | 2471m | 8m/s | -39.4°C | 0.7% | 7.7hPa | 2.4V | 00:00:00 | 00:00:00 | 00:00:00 | |
| AA1-15 | 2026-09-03 12:45:10 | 54.95174 | 19.26280 | 268° | 15km/h | 2411m | 8.9m/s | -39.2°C | 0.7% | 7.8hPa | 2.4V | 00:00:00 | 00:00:00 | 00:00:00 | |
| AA1-15 | 2026-09-03 12:44:58 | 54.95176 | 19.26352 | 262° | 15km/h | 2324m | 8.8m/s | -39.3°C | 0.7% | 7.9hPa | 2.4V | 00:00:00 | 00:00:00 | 00:00:00 | |
| AA1-15 | 2026-09-03 12:44:47 | 54.95190 | 19.26432 | 272° | 13km/h | 2217m | 8.4m/s | -39.4°C | 0.7% | 8hPa | 2.4V | 00:00:00 | 00:00:00 | 00:00:00 | |
| AA1-15 | 2026-09-03 12:44:36 | 54.95204 | 19.26500 | 271° | 16km/h | 2103m | 8.2m/s | -39.7°C | 0.7% | 8.1hPa | 2.4V | 00:00:00 | 00:00:00 | 00:00:00 | |
| AA1-15 | 2026-09-03 12:44:26 | 54.95219 | 19.26573 | 274° | 15km/h | 1999m | 9m/s | -40°C | 0.7% | 8.2hPa | 2.4V | 00:00:00 | 00:00:00 | 00:00:00 | |
| AA1-15 | 2026-09-03 12:44:23 | 54.95219 | 19.26584 | 266° | 13km/h | 1979m | 8.6m/s | -39.9°C | 0.6% | 8.2hPa | 2.4V | 00:00:00 | 00:00:00 | 00:00:00 | |
| AA1-15 | 2026-09-03 12:44:22 | 54.95220 | 19.26591 | 270° | 16km/h | 1971m | 8.1m/s | -39.9°C | 0.6% | 8.2hPa | 2.4V | 00:00:00 | 00:00:00 | 00:00:00 | |
| AA1-15 | 2026-09-03 12:44:20 | 54.95220 | 19.26602 | 271° | 13km/h | 1947m | 9.1m/s | -39.9°C | 0.7% | 8.2hPa | 2.4V | 00:00:00 | 00:00:00 | 00:00:00 | |
| AA1-15 | 2026-09-03 12:44:19 | 54.95221 | 19.26609 | 270° | 13km/h | 1937m | 8.2m/s | -39.9°C | 0.7% | 8.3hPa | 2.4V | 00:00:00 | 00:00:00 | 00:00:00 | |
| AA1-15 | 2026-09-03 12:44:18 | 54.95222 | 19.26615 | 268° | 13km/h | 1926m | 7.9m/s | -39.9°C | 0.7% | 8.3hPa | 2.4V | 00:00:00 | 00:00:00 | 00:00:00 | |
| AA1-15 | 2026-09-03 12:44:17 | 54.95224 | 19.26624 | 270° | 16km/h | 1917m | 8m/s | -39.9°C | 0.7% | 8.3hPa | 2.4V | 00:00:00 | 00:00:00 | 00:00:00 | |
| AA1-15 | 2026-09-03 12:44:15 | 54.95226 | 19.26640 | 270° | 16km/h | 1897m | 8.1m/s | -39.9°C | 0.7% | 8.3hPa | 2.4V | 00:00:00 | 00:00:00 | 00:00:00 | |
| AA1-15 | 2026-09-03 12:44:14 | 54.95228 | 19.26647 | 270° | 13km/h | 1888m | 8.1m/s | -39.9°C | 0.6% | 8.3hPa | 2.4V | 00:00:00 | 00:00:00 | 00:00:00 | |
| AA1-15 | 2026-09-03 12:44:13 | 54.95231 | 19.26660 | 271° | 13km/h | 1869m | 8.2m/s | -39.9°C | 0.6% | 8.3hPa | 2.4V | 00:00:00 | 00:00:00 | 00:00:00 | |
| AA1-15 | 2026-09-03 12:44:11 | 54.95233 | 19.26668 | 270° | 13km/h | 1859m | 8.1m/s | -39.9°C | 0.6% | 8.3hPa | 2.4V | 00:00:00 | 00:00:00 | 00:00:00 | |
| AA1-15 | 2026-09-03 12:44:09 | 54.95239 | 19.26684 | 268° | 13km/h | 1841m | 7.1m/s | -39.9°C | 0.6% | 8.4hPa | 2.4V | 00:00:00 | 00:00:00 | 00:00:00 | |
| AA1-15 | 2026-09-03 12:44:08 | 54.95239 | 19.26690 | 271° | 15km/h | 1831m | 9.6m/s | -39.9°C | 0.6% | 8.4hPa | 2.4V | 00:00:00 | 00:00:00 | 00:00:00 | |
| AA1-15 | 2026-09-03 12:44:07 | 54.95238 | 19.26696 | 274° | 13km/h | 1823m | 7.6m/s | -39.9°C | 0.6% | 8.4hPa | 2.4V | 00:00:00 | 00:00:00 | 00:00:00 | |
| AA1-15 | 2026-09-03 12:44:06 | 54.95242 | 19.26705 | 270° | 13km/h | 1804m | 8.1m/s | -39.9°C | 0.6% | 8.4hPa | 2.4V | 00:00:00 | 00:00:00 | 00:00:00 | |
| AA1-15 | 2026-09-03 12:44:02 | 54.95254 | 19.26717 | 274° | 13km/h | 1738m | 7.3m/s | -40.1°C | 0.6% | 8.5hPa | 2.4V | 00:00:00 | 00:00:00 | 00:00:00 | |
| AA1-15 | 2026-09-03 12:44:01 | 54.95252 | 19.26723 | 276° | 15km/h | 1737m | 7.1m/s | -40.2°C | 0.6% | 8.5hPa | 2.4V | 00:00:00 | 00:00:00 | 00:00:00 | |
| AA1-15 | 2026-09-03 12:43:58 | 54.95251 | 19.26733 | 272° | 16km/h | 1733m | 7.2m/s | -40.2°C | 0.6% | 8.5hPa | 2.4V | 00:00:00 | 00:00:00 | 00:00:00 | |
| AA1-15 | 2026-09-03 12:43:56 | 54.95250 | 19.26750 | 269° | 16km/h | 1719m | 8.3m/s | -40.3°C | 0.6% | 8.5hPa | 2.4V | 00:00:00 | 00:00:00 | 00:00:00 | |
| AA1-15 | 2026-09-03 12:43:54 | 54.95248 | 19.26772 | 270° | 13km/h | 1696m | 8m/s | -40.6°C | 0.6% | 8.6hPa | 2.4V | 00:00:00 | 00:00:00 | 00:00:00 | |
| AA1-15 | 2026-09-03 12:43:51 | 54.95248 | 19.26787 | 270° | 16km/h | 1682m | 8.1m/s | -40.7°C | 0.6% | 8.6hPa | 2.4V | 00:00:00 | 00:00:00 | 00:00:00 | |
| AA1-15 | 2026-09-03 12:43:49 | 54.95248 | 19.26802 | 270° | 16km/h | 1671m | 8.5m/s | -40.8°C | 0.6% | 8.6hPa | 2.4V | 00:00:00 | 00:00:00 | 00:00:00 | |
| AA1-15 | 2026-09-03 12:43:47 | 54.95245 | 19.26816 | 273° | 15km/h | 1656m | 7.5m/s | -41°C | 0.6% | 8.6hPa | 2.4V | 00:00:00 | 00:00:00 | 00:00:00 | |
| AA1-15 | 2026-09-03 12:43:45 | 54.95226 | 19.26854 | 271° | 15km/h | 1579m | 6.6m/s | -41°C | 0.6% | 8.7hPa | 2.4V | 00:00:00 | 00:00:00 | 00:00:00 | |
| AA1-15 | 2026-09-03 12:43:38 | 54.53127 | 22.22226 | 0° | 0km/h | 159087m | 0m/s | -41.6°C | 0.6% | 8.7hPa | 2.4V | 00:00:00 | 00:00:00 | 00:00:00 | |
| AA1-15 | 2026-09-03 12:43:27 | 54.53127 | 22.22226 | 0° | 0km/h | 159087m | 0m/s | -42°C | 0.6% | 8.8hPa | 2.4V | 00:00:00 | 00:00:00 | 00:00:00 | |
| AA1-15 | 2026-09-03 12:43:16 | 54.53127 | 22.22226 | 0° | 0km/h | 159087m | 0m/s | -42°C | 0.6% | 8.9hPa | 2.4V | 00:00:00 | 00:00:00 | 00:00:00 |